createdAt,value
2019-02-18T00:00:43.961Z,2.80
2019-02-18T00:03:10.570Z,2.80
2019-02-18T00:05:37.094Z,2.80
2019-02-18T00:08:03.665Z,2.80
2019-02-18T00:10:30.075Z,2.80
2019-02-18T00:12:56.585Z,2.80
2019-02-18T00:15:22.948Z,2.80
2019-02-18T00:17:49.406Z,2.80
2019-02-18T00:20:15.792Z,2.80
2019-02-18T00:22:42.302Z,2.80
2019-02-18T00:25:08.901Z,2.90
2019-02-18T00:27:35.369Z,2.90
2019-02-18T00:30:02.068Z,3.00
2019-02-18T00:32:28.386Z,3.00
2019-02-18T00:34:54.770Z,3.00
2019-02-18T00:37:24.338Z,3.00
2019-02-18T00:39:49.251Z,3.00
2019-02-18T00:42:15.517Z,3.00
2019-02-18T00:44:41.917Z,3.00
2019-02-18T00:47:08.183Z,3.00
2019-02-18T00:49:34.744Z,3.00
2019-02-18T00:52:01.231Z,3.00
2019-02-18T00:54:27.616Z,3.10
2019-02-18T00:56:53.998Z,3.10
2019-02-18T00:59:20.387Z,3.10
2019-02-18T01:01:46.856Z,3.10
2019-02-18T01:04:13.367Z,3.10
2019-02-18T01:06:39.751Z,3.10
2019-02-18T01:09:06.352Z,3.10
2019-02-18T01:11:32.944Z,3.10
2019-02-18T01:13:59.416Z,3.10
2019-02-18T01:16:25.788Z,3.10
2019-02-18T01:18:52.111Z,3.00
2019-02-18T01:21:18.469Z,3.10
2019-02-18T01:23:44.918Z,3.10
2019-02-18T01:26:11.287Z,3.10
2019-02-18T01:28:37.862Z,3.10
2019-02-18T01:31:05.096Z,3.00
2019-02-18T01:33:31.549Z,3.00
2019-02-18T01:35:58.048Z,3.10
2019-02-18T01:38:24.442Z,3.10
2019-02-18T01:40:51.011Z,3.10
2019-02-18T01:43:17.513Z,3.10
2019-02-18T01:45:44.146Z,3.10
2019-02-18T01:48:10.600Z,3.10
2019-02-18T01:50:37.193Z,3.10
2019-02-18T01:53:03.777Z,3.20
2019-02-18T01:55:30.147Z,3.20
2019-02-18T01:57:56.530Z,3.10
2019-02-18T02:00:23.010Z,3.10
2019-02-18T02:02:49.501Z,3.20
2019-02-18T02:05:16.096Z,3.20
2019-02-18T02:07:42.641Z,3.20
2019-02-18T02:10:11.016Z,3.20
2019-02-18T02:12:37.507Z,3.20
2019-02-18T02:15:19.227Z,3.20
2019-02-18T02:17:45.581Z,3.20
2019-02-18T02:20:12.066Z,3.20
2019-02-18T02:22:38.656Z,3.20
2019-02-18T02:25:05.342Z,3.20
2019-02-18T02:27:31.926Z,3.20
2019-02-18T02:29:58.474Z,3.20
2019-02-18T02:32:25.034Z,3.20
2019-02-18T02:34:51.471Z,3.20
2019-02-18T02:37:17.893Z,3.20
2019-02-18T02:39:44.425Z,3.20
2019-02-18T02:42:10.982Z,3.20
2019-02-18T02:44:37.460Z,3.20
2019-02-18T02:47:03.942Z,3.20
2019-02-18T02:49:30.307Z,3.20
2019-02-18T02:51:56.776Z,3.20
2019-02-18T02:54:23.232Z,3.10
2019-02-18T02:56:49.631Z,3.10
2019-02-18T02:59:16.109Z,3.20
2019-02-18T03:01:42.474Z,3.20
2019-02-18T03:04:08.855Z,3.20
2019-02-18T03:06:35.243Z,3.20
2019-02-18T03:09:01.639Z,3.20
2019-02-18T03:11:28.295Z,3.10
2019-02-18T03:13:54.743Z,3.10
2019-02-18T03:16:21.231Z,3.10
2019-02-18T03:18:47.657Z,3.10
2019-02-18T03:21:14.279Z,3.20
2019-02-18T03:23:40.777Z,3.20
2019-02-18T03:26:08.407Z,3.20
2019-02-18T03:28:44.565Z,3.20
2019-02-18T03:31:17.434Z,3.10
2019-02-18T03:33:47.563Z,3.20
2019-02-18T03:36:13.955Z,3.10
2019-02-18T03:38:40.656Z,3.10
2019-02-18T03:41:07.136Z,3.10
2019-02-18T03:43:33.738Z,3.10
2019-02-18T03:46:00.224Z,3.10
2019-02-18T03:48:26.711Z,3.10
2019-02-18T03:50:53.010Z,3.10
2019-02-18T03:53:19.392Z,3.10
2019-02-18T03:55:45.904Z,3.10
2019-02-18T03:58:12.302Z,3.10
2019-02-18T04:00:38.776Z,3.00
2019-02-18T04:03:05.270Z,3.00
2019-02-18T04:05:31.687Z,3.00
2019-02-18T04:07:58.260Z,3.00
2019-02-18T04:10:24.729Z,3.00
2019-02-18T04:12:51.138Z,2.90
2019-02-18T04:15:17.756Z,2.90
2019-02-18T04:17:44.261Z,2.90
2019-02-18T04:20:10.836Z,3.00
2019-02-18T04:22:37.247Z,3.00
2019-02-18T04:25:05.444Z,3.00
2019-02-18T04:27:31.865Z,2.90
2019-02-18T04:29:58.231Z,3.00
2019-02-18T04:32:24.757Z,2.90
2019-02-18T04:34:51.147Z,2.90
2019-02-18T04:37:17.650Z,2.90
2019-02-18T04:39:44.045Z,2.90
2019-02-18T04:42:10.535Z,3.00
2019-02-18T04:44:37.043Z,3.00
2019-02-18T04:47:03.533Z,3.00
2019-02-18T04:49:30.004Z,3.00
2019-02-18T04:51:56.368Z,3.00
2019-02-18T04:54:22.877Z,3.00
2019-02-18T04:56:49.372Z,3.00
2019-02-18T04:59:15.762Z,3.00
2019-02-18T05:01:42.262Z,3.00
2019-02-18T05:04:08.547Z,3.00
2019-02-18T05:06:35.040Z,3.10
2019-02-18T05:09:05.416Z,3.10
2019-02-18T05:11:29.841Z,3.10
2019-02-18T05:13:56.225Z,3.10
2019-02-18T05:16:22.622Z,3.10
2019-02-18T05:18:49.189Z,3.10
2019-02-18T05:21:15.628Z,3.10
2019-02-18T05:23:41.969Z,3.20
2019-02-18T05:26:08.455Z,3.20
2019-02-18T05:28:35.039Z,3.20
2019-02-18T05:31:01.512Z,3.20
2019-02-18T05:33:28.170Z,3.20
2019-02-18T05:35:55.933Z,3.10
2019-02-18T05:38:22.462Z,3.10
2019-02-18T05:40:49.026Z,3.10
2019-02-18T05:43:15.546Z,3.10
2019-02-18T05:45:43.525Z,3.10
2019-02-18T05:48:10.095Z,3.10
2019-02-18T05:50:36.489Z,3.10
2019-02-18T05:53:02.850Z,3.10
2019-02-18T05:55:31.049Z,3.10
2019-02-18T05:57:57.518Z,3.10
2019-02-18T06:00:24.163Z,3.10
2019-02-18T06:02:50.689Z,3.20
2019-02-18T06:05:16.954Z,3.20
2019-02-18T06:07:43.483Z,3.20
2019-02-18T06:10:10.020Z,3.20
2019-02-18T06:12:36.430Z,3.30
2019-02-18T06:15:04.266Z,3.30
2019-02-18T06:17:30.737Z,3.30
2019-02-18T06:19:57.394Z,3.30
2019-02-18T06:22:23.760Z,3.30
2019-02-18T06:24:50.328Z,3.30
2019-02-18T06:27:17.875Z,3.30
2019-02-18T06:29:44.130Z,3.30
2019-02-18T06:32:10.623Z,3.30
2019-02-18T06:34:37.197Z,3.40
2019-02-18T06:37:03.853Z,3.40
2019-02-18T06:39:40.917Z,3.40
2019-02-18T06:41:58.948Z,3.40
2019-02-18T06:44:27.458Z,3.40
2019-02-18T06:46:55.750Z,3.40
2019-02-18T06:49:22.096Z,3.40
2019-02-18T06:51:48.610Z,3.40
2019-02-18T06:54:15.106Z,3.40
2019-02-18T06:56:55.778Z,3.40
2019-02-18T06:59:24.049Z,3.50
2019-02-18T07:02:07.161Z,3.50
2019-02-18T07:04:35.529Z,3.40
2019-02-18T07:07:06.705Z,3.40
2019-02-18T07:09:34.986Z,3.40
2019-02-18T07:12:05.248Z,3.40
2019-02-18T07:14:31.838Z,3.40
2019-02-18T07:17:00.176Z,3.40
2019-02-18T07:19:26.664Z,3.40
2019-02-18T07:21:53.282Z,3.50
2019-02-18T07:24:19.684Z,3.50
2019-02-18T07:26:46.114Z,3.50
2019-02-18T07:29:12.485Z,3.50
2019-02-18T07:31:38.981Z,3.50
2019-02-18T07:34:07.195Z,3.50
2019-02-18T07:36:35.111Z,3.60
2019-02-18T07:39:03.605Z,3.60
2019-02-18T07:41:30.111Z,3.70
2019-02-18T07:43:56.696Z,3.70
2019-02-18T07:46:23.055Z,3.80
2019-02-18T07:48:49.562Z,3.80
2019-02-18T07:51:15.949Z,3.80
2019-02-18T07:53:42.460Z,3.70
2019-02-18T07:56:08.828Z,3.80
2019-02-18T07:58:35.341Z,3.80
2019-02-18T08:01:01.903Z,3.80
2019-02-18T08:03:28.375Z,3.90
2019-02-18T08:05:54.818Z,3.90
2019-02-18T08:08:21.323Z,3.90
2019-02-18T08:10:47.721Z,3.90
2019-02-18T08:13:15.512Z,4.00
2019-02-18T08:15:41.775Z,4.10
2019-02-18T08:18:08.156Z,4.10
2019-02-18T08:20:34.556Z,4.00
2019-02-18T08:23:01.042Z,4.10
2019-02-18T08:25:27.517Z,4.00
2019-02-18T08:27:53.973Z,4.10
2019-02-18T08:30:20.455Z,4.10
2019-02-18T08:32:47.062Z,4.00
2019-02-18T08:35:13.605Z,4.00
2019-02-18T08:37:40.223Z,3.90
2019-02-18T08:40:08.498Z,3.90
2019-02-18T08:42:34.787Z,3.80
2019-02-18T08:45:01.282Z,3.70
2019-02-18T08:47:27.644Z,3.70
2019-02-18T08:49:54.259Z,3.70
2019-02-18T08:52:22.390Z,3.60
2019-02-18T08:54:56.215Z,3.60
2019-02-18T08:57:17.237Z,3.50
2019-02-18T08:59:43.737Z,3.50
2019-02-18T09:02:10.334Z,3.50
2019-02-18T09:04:36.730Z,3.50
2019-02-18T09:07:03.260Z,3.50
2019-02-18T09:09:29.815Z,3.50
2019-02-18T09:11:57.159Z,3.40
2019-02-18T09:14:23.562Z,3.40
2019-02-18T09:16:50.584Z,3.40
2019-02-18T09:19:18.023Z,3.40
2019-02-18T09:21:46.179Z,3.40
2019-02-18T09:24:21.115Z,3.50
2019-02-18T09:26:49.960Z,3.30
2019-02-18T09:29:17.340Z,3.30
2019-02-18T09:31:46.397Z,3.10
2019-02-18T09:34:12.964Z,3.00
2019-02-18T09:36:39.374Z,3.00
2019-02-18T09:39:09.587Z,2.90
2019-02-18T09:41:36.094Z,2.80
2019-02-18T09:44:02.591Z,2.90
2019-02-18T09:46:29.258Z,2.90
2019-02-18T09:48:55.841Z,2.90
2019-02-18T09:51:22.282Z,2.90
2019-02-18T09:53:48.853Z,2.80
2019-02-18T09:56:15.520Z,2.70
2019-02-18T09:58:41.971Z,2.80
2019-02-18T10:01:08.555Z,2.90
2019-02-18T10:03:35.068Z,2.90
2019-02-18T10:06:01.593Z,2.90
2019-02-18T10:08:28.134Z,3.00
2019-02-18T10:10:56.213Z,3.10
2019-02-18T10:13:22.715Z,3.10
2019-02-18T10:15:49.255Z,3.10
2019-02-18T10:18:15.808Z,3.20
2019-02-18T10:20:42.380Z,3.30
2019-02-18T10:23:08.819Z,3.30
2019-02-18T10:25:35.466Z,3.40
2019-02-18T10:28:01.983Z,3.50
2019-02-18T10:30:31.270Z,3.70
2019-02-18T10:32:57.794Z,3.80
2019-02-18T10:35:26.445Z,3.90
2019-02-18T10:37:55.020Z,4.00
2019-02-18T10:40:21.089Z,4.10
2019-02-18T10:42:47.573Z,4.10
2019-02-18T10:45:16.981Z,4.20
2019-02-18T10:47:43.496Z,4.20
2019-02-18T10:50:10.680Z,4.30
2019-02-18T10:52:37.190Z,4.30
2019-02-18T10:55:05.451Z,4.40
2019-02-18T10:57:32.409Z,4.40
2019-02-18T10:59:59.309Z,4.50
2019-02-18T11:02:25.900Z,4.60
2019-02-18T11:04:52.402Z,4.70
2019-02-18T11:07:18.832Z,4.80
2019-02-18T11:09:45.317Z,4.80
2019-02-18T11:12:11.881Z,4.90
2019-02-18T11:14:38.240Z,5.00
2019-02-18T11:17:04.777Z,5.10
2019-02-18T11:19:31.299Z,5.20
2019-02-18T11:21:57.918Z,5.20
2019-02-18T11:24:24.488Z,5.20
2019-02-18T11:26:51.252Z,5.30
2019-02-18T11:29:17.748Z,5.40
2019-02-18T11:31:44.207Z,5.40
2019-02-18T11:34:10.645Z,5.60
2019-02-18T11:36:37.293Z,5.50
2019-02-18T11:39:07.424Z,5.60
2019-02-18T11:41:33.846Z,5.70
2019-02-18T11:44:00.675Z,5.70
2019-02-18T11:46:27.090Z,5.70
2019-02-18T11:48:53.556Z,5.80
2019-02-18T11:51:20.187Z,5.90
2019-02-18T11:53:46.712Z,5.90
2019-02-18T11:56:13.456Z,6.00
2019-02-18T11:58:39.958Z,6.00
2019-02-18T12:01:06.845Z,6.00
2019-02-18T12:03:33.469Z,6.10
2019-02-18T12:06:08.677Z,6.20
2019-02-18T12:08:35.182Z,6.20
2019-02-18T12:11:01.633Z,6.20
2019-02-18T12:13:28.058Z,6.20
2019-02-18T12:15:54.667Z,6.10
2019-02-18T12:18:21.030Z,6.00
2019-02-18T12:20:47.654Z,6.10
2019-02-18T12:23:14.295Z,6.00
2019-02-18T12:25:40.897Z,6.00
2019-02-18T12:28:07.467Z,6.00
2019-02-18T12:30:34.095Z,6.00
2019-02-18T12:33:00.466Z,5.90
2019-02-18T12:35:30.869Z,6.00
2019-02-18T12:37:55.742Z,5.90
2019-02-18T12:40:22.582Z,5.90
2019-02-18T12:42:49.083Z,5.80
2019-02-18T12:45:15.674Z,5.80
2019-02-18T12:47:42.266Z,5.80
2019-02-18T12:50:09.874Z,5.80
2019-02-18T12:52:36.354Z,5.80
2019-02-18T12:55:04.118Z,5.90
2019-02-18T12:57:31.120Z,5.90
2019-02-18T12:59:57.953Z,5.90
2019-02-18T13:02:24.579Z,5.90
2019-02-18T13:04:51.086Z,5.80
2019-02-18T13:07:17.547Z,5.90
2019-02-18T13:09:43.962Z,5.90
2019-02-18T13:12:10.260Z,5.90
2019-02-18T13:14:36.731Z,5.90
2019-02-18T13:17:03.628Z,5.90
2019-02-18T13:19:30.046Z,5.90
2019-02-18T13:21:56.825Z,5.90
2019-02-18T13:24:23.386Z,5.90
2019-02-18T13:26:49.773Z,5.90
2019-02-18T13:29:16.163Z,5.90
2019-02-18T13:31:42.763Z,5.90
2019-02-18T13:34:09.052Z,5.90
2019-02-18T13:36:35.576Z,5.90
2019-02-18T13:39:04.015Z,5.90
2019-02-18T13:41:30.705Z,6.00
2019-02-18T13:43:57.046Z,5.90
2019-02-18T13:46:23.684Z,5.90
2019-02-18T13:48:50.439Z,5.90
2019-02-18T13:51:24.095Z,5.90
2019-02-18T13:53:45.283Z,5.80
2019-02-18T13:56:11.764Z,5.90
2019-02-18T13:58:38.174Z,5.80
2019-02-18T14:01:05.178Z,5.80
2019-02-18T14:03:31.656Z,5.90
2019-02-18T14:05:58.146Z,6.00
2019-02-18T14:08:24.869Z,6.00
2019-02-18T14:10:51.464Z,5.90
2019-02-18T14:13:18.099Z,5.90
2019-02-18T14:15:45.465Z,5.90
2019-02-18T14:18:11.941Z,5.80
2019-02-18T14:20:38.545Z,5.80
2019-02-18T14:23:05.095Z,5.90
2019-02-18T14:25:31.617Z,5.90
2019-02-18T14:27:58.214Z,5.90
2019-02-18T14:30:24.812Z,5.80
2019-02-18T14:32:51.530Z,5.80
2019-02-18T14:35:18.063Z,5.90
2019-02-18T14:37:44.738Z,5.90
2019-02-18T14:40:13.219Z,5.80
2019-02-18T14:42:39.726Z,5.80
2019-02-18T14:45:07.085Z,5.80
2019-02-18T14:47:33.618Z,5.80
2019-02-18T14:50:00.051Z,5.80
2019-02-18T14:52:27.075Z,5.80
2019-02-18T14:54:53.816Z,5.70
2019-02-18T14:57:20.583Z,5.80
2019-02-18T14:59:47.224Z,5.80
2019-02-18T15:02:13.910Z,5.80
2019-02-18T15:04:40.394Z,5.70
2019-02-18T15:07:06.916Z,5.70
2019-02-18T15:09:33.538Z,5.70
2019-02-18T15:12:00.039Z,5.70
2019-02-18T15:14:26.648Z,5.70
2019-02-18T15:16:53.446Z,5.70
2019-02-18T15:19:20.066Z,5.70
2019-02-18T15:21:46.614Z,5.70
2019-02-18T15:24:13.082Z,5.70
2019-02-18T15:26:39.722Z,5.70
2019-02-18T15:29:06.266Z,5.60
2019-02-18T15:31:32.865Z,5.60
2019-02-18T15:33:59.334Z,5.50
2019-02-18T15:36:25.863Z,5.50
2019-02-18T15:38:52.475Z,5.40
2019-02-18T15:41:20.059Z,5.40
2019-02-18T15:43:46.615Z,5.30
2019-02-18T15:46:13.147Z,5.40
2019-02-18T15:48:39.652Z,5.40
2019-02-18T15:51:06.267Z,5.30
2019-02-18T15:53:32.984Z,5.30
2019-02-18T15:55:59.334Z,5.30
2019-02-18T15:58:25.884Z,5.30
2019-02-18T16:00:52.397Z,5.20
2019-02-18T16:03:18.755Z,5.20
2019-02-18T16:05:45.571Z,5.20
2019-02-18T16:08:12.155Z,5.10
2019-02-18T16:10:38.848Z,5.20
2019-02-18T16:13:05.433Z,5.10
2019-02-18T16:15:32.022Z,5.10
2019-02-18T16:17:58.549Z,5.10
2019-02-18T16:20:25.083Z,5.10
2019-02-18T16:22:51.717Z,5.00
2019-02-18T16:25:21.000Z,5.00
2019-02-18T16:27:47.526Z,5.00
2019-02-18T16:30:14.242Z,5.00
2019-02-18T16:32:41.131Z,5.00
2019-02-18T16:35:08.380Z,5.00
2019-02-18T16:37:36.158Z,4.90
2019-02-18T16:40:05.953Z,4.90
2019-02-18T16:42:32.500Z,4.90
2019-02-18T16:44:59.477Z,4.90
2019-02-18T16:47:25.921Z,4.90
2019-02-18T16:49:52.350Z,5.00
2019-02-18T16:52:19.048Z,4.90
2019-02-18T16:54:45.623Z,4.90
2019-02-18T16:57:12.244Z,5.00
2019-02-18T16:59:38.742Z,5.00
2019-02-18T17:02:05.412Z,5.00
2019-02-18T17:04:32.418Z,5.00
2019-02-18T17:06:59.145Z,5.00
2019-02-18T17:09:25.398Z,5.00
2019-02-18T17:11:51.981Z,4.90
2019-02-18T17:14:18.509Z,4.90
2019-02-18T17:16:45.011Z,4.90
2019-02-18T17:19:11.549Z,4.90
2019-02-18T17:21:38.218Z,4.90
2019-02-18T17:24:04.894Z,4.90
2019-02-18T17:26:31.595Z,4.90
2019-02-18T17:28:58.186Z,5.00
2019-02-18T17:31:24.767Z,5.00
2019-02-18T17:33:51.249Z,5.00
2019-02-18T17:36:17.671Z,5.00
2019-02-18T17:38:44.125Z,5.00
2019-02-18T17:41:10.685Z,5.10
2019-02-18T17:43:37.177Z,5.10
2019-02-18T17:46:03.861Z,5.20
2019-02-18T17:48:30.581Z,5.20
2019-02-18T17:50:57.150Z,5.20
2019-02-18T17:53:23.681Z,5.20
2019-02-18T17:55:50.274Z,5.20
2019-02-18T17:58:16.766Z,5.30
2019-02-18T18:00:45.174Z,5.30
2019-02-18T18:03:11.565Z,5.30
2019-02-18T18:05:38.441Z,5.40
2019-02-18T18:08:04.952Z,5.30
2019-02-18T18:10:31.548Z,5.40
2019-02-18T18:12:57.998Z,5.40
2019-02-18T18:15:24.508Z,5.30
2019-02-18T18:17:50.990Z,5.40
2019-02-18T18:20:17.458Z,5.50
2019-02-18T18:22:43.877Z,5.50
2019-02-18T18:25:11.874Z,5.60
2019-02-18T18:27:39.494Z,5.60
2019-02-18T18:30:09.540Z,5.60
2019-02-18T18:32:36.127Z,5.70
2019-02-18T18:35:03.743Z,5.60
2019-02-18T18:37:30.307Z,5.60
2019-02-18T18:39:56.756Z,5.60
2019-02-18T18:42:23.674Z,5.60
2019-02-18T18:44:50.130Z,5.60
2019-02-18T18:47:16.753Z,5.60
2019-02-18T18:49:43.233Z,5.70
2019-02-18T18:52:09.652Z,5.70
2019-02-18T18:54:36.320Z,5.70
2019-02-18T18:57:02.902Z,5.70
2019-02-18T18:59:29.583Z,5.70
2019-02-18T19:01:56.125Z,5.80
2019-02-18T19:04:22.613Z,5.80
2019-02-18T19:06:49.016Z,5.80
2019-02-18T19:09:15.810Z,5.80
2019-02-18T19:11:42.209Z,5.90
2019-02-18T19:14:08.620Z,5.80
2019-02-18T19:16:34.991Z,5.80
2019-02-18T19:19:02.938Z,5.70
2019-02-18T19:21:29.633Z,5.70
2019-02-18T19:23:57.557Z,5.70
2019-02-18T19:26:24.104Z,5.70
2019-02-18T19:28:50.499Z,5.60
2019-02-18T19:31:16.857Z,5.60
2019-02-18T19:33:43.463Z,5.50
2019-02-18T19:36:10.218Z,5.40
2019-02-18T19:38:36.882Z,5.50
2019-02-18T19:41:03.362Z,5.50
2019-02-18T19:43:29.836Z,5.50
2019-02-18T19:45:56.431Z,5.50
2019-02-18T19:48:22.916Z,5.50
2019-02-18T19:50:51.232Z,5.40
2019-02-18T19:53:17.690Z,5.40
2019-02-18T19:55:44.282Z,5.20
2019-02-18T19:58:10.775Z,5.20
2019-02-18T20:00:37.263Z,5.20
2019-02-18T20:03:03.948Z,5.10
2019-02-18T20:05:30.551Z,5.10
2019-02-18T20:07:57.148Z,5.10
2019-02-18T20:10:24.521Z,5.00
2019-02-18T20:12:51.665Z,5.00
2019-02-18T20:15:18.237Z,5.00
2019-02-18T20:17:44.713Z,5.00
2019-02-18T20:20:15.412Z,5.00
2019-02-18T20:22:41.952Z,5.00
2019-02-18T20:25:08.808Z,5.00
2019-02-18T20:27:35.290Z,5.00
2019-02-18T20:30:02.247Z,5.00
2019-02-18T20:32:28.632Z,5.00
2019-02-18T20:34:55.162Z,5.00
2019-02-18T20:37:21.692Z,4.90
2019-02-18T20:39:49.426Z,4.90
2019-02-18T20:42:17.088Z,4.90
2019-02-18T20:44:43.799Z,4.80
2019-02-18T20:47:10.535Z,4.80
2019-02-18T20:49:37.146Z,4.80
2019-02-18T20:52:03.885Z,4.80
2019-02-18T20:54:31.136Z,4.80
2019-02-18T20:56:57.638Z,4.80
2019-02-18T20:59:24.170Z,4.90
2019-02-18T21:01:50.764Z,4.90
2019-02-18T21:04:17.298Z,4.90
2019-02-18T21:06:44.032Z,4.90
2019-02-18T21:09:10.764Z,4.90
2019-02-18T21:11:37.220Z,4.90
2019-02-18T21:14:03.852Z,4.90
2019-02-18T21:16:30.496Z,4.90
2019-02-18T21:18:57.094Z,4.90
2019-02-18T21:21:24.051Z,4.90
2019-02-18T21:23:50.532Z,5.00
2019-02-18T21:26:17.210Z,5.00
2019-02-18T21:28:43.577Z,5.00
2019-02-18T21:31:10.634Z,5.00
2019-02-18T21:33:38.913Z,4.90
2019-02-18T21:36:05.669Z,5.00
2019-02-18T21:38:32.365Z,5.00
2019-02-18T21:40:58.781Z,5.10
2019-02-18T21:43:25.569Z,5.10
2019-02-18T21:45:52.010Z,5.20
2019-02-18T21:48:18.511Z,5.20
2019-02-18T21:50:44.925Z,5.10
2019-02-18T21:53:11.592Z,5.10
2019-02-18T21:55:38.182Z,5.20
2019-02-18T21:58:04.624Z,5.10
2019-02-18T22:00:31.056Z,5.20
2019-02-18T22:02:57.817Z,5.20
2019-02-18T22:05:24.290Z,5.20
2019-02-18T22:07:50.847Z,5.20
2019-02-18T22:10:17.457Z,5.20
2019-02-18T22:12:43.919Z,5.20
2019-02-18T22:15:12.420Z,5.20
2019-02-18T22:17:39.082Z,5.20
2019-02-18T22:20:08.176Z,5.10
2019-02-18T22:22:34.773Z,5.10
2019-02-18T22:25:01.339Z,5.20
2019-02-18T22:27:27.948Z,5.10
2019-02-18T22:29:56.543Z,5.10
2019-02-18T22:32:24.810Z,5.10
2019-02-18T22:34:51.388Z,5.10
2019-02-18T22:37:17.982Z,5.10
2019-02-18T22:39:44.564Z,5.00
2019-02-18T22:42:12.782Z,5.00
2019-02-18T22:44:41.871Z,5.00
2019-02-18T22:47:07.693Z,5.00
2019-02-18T22:49:34.376Z,5.00
2019-02-18T22:52:00.766Z,5.00
2019-02-18T22:54:27.411Z,4.90
2019-02-18T22:56:53.895Z,4.90
2019-02-18T22:59:20.542Z,4.90
2019-02-18T23:01:47.346Z,4.90
2019-02-18T23:04:13.822Z,4.90
2019-02-18T23:06:40.295Z,4.90
2019-02-18T23:09:08.681Z,4.80
2019-02-18T23:11:35.152Z,4.80
2019-02-18T23:14:01.846Z,4.80
2019-02-18T23:16:28.225Z,4.80
2019-02-18T23:18:54.801Z,4.80
2019-02-18T23:21:21.719Z,4.80
2019-02-18T23:23:48.108Z,4.80
2019-02-18T23:26:14.491Z,4.80
2019-02-18T23:28:41.277Z,4.80
2019-02-18T23:31:07.764Z,4.80
2019-02-18T23:33:34.426Z,4.70
2019-02-18T23:36:01.039Z,4.80
2019-02-18T23:38:27.442Z,4.80
2019-02-18T23:40:55.399Z,4.80
2019-02-18T23:43:21.919Z,4.80
2019-02-18T23:45:48.409Z,4.70
2019-02-18T23:48:14.915Z,4.70
2019-02-18T23:50:41.419Z,4.70
2019-02-18T23:53:07.898Z,4.60
2019-02-18T23:55:34.382Z,4.60
2019-02-18T23:58:00.789Z,4.60
